Toronto, Canada
Current Conditions -  °F | °C
As of 12:00 PM on Saturday 25 Oct 2014 (Local Time) from CYYZ Reporting Station
Broken Clouds Broken Clouds  
Wind Chill: 16°   Ceiling: 4100
Heat Index: 16°   Visibility: 12mi
Dew Point:   Wind: 20mph
Humidity: 63%   Direction: 230°SW
Pressure: 29.65"   Gusts: NA
Location:  43.65°N, 79.39°W
Report Text: CYYZ 251600Z 23017KT 12SM BKN041 BKN072 16/09 A2965 RMK SC6AC1 SLP040 DENSITY ALT 1000FT
Loading
Personal Weather Stations






























Interactive Weather Map
Tropical Storm Tracking
New forecast layout! Learn more

10-Day Weather Forecast

Advertisements
Track Severe Weather on mobile